sensor_id;sensor_type;location;lat;lon;timestamp;P1;durP1;ratioP1;P2;durP2;ratioP2
11396;SDS011;5754;43.726;7.416;2023-09-12T00:00:06;11.45;;;10.45;;
11396;SDS011;5754;43.726;7.416;2023-09-12T00:02:49;10.30;;;9.32;;
11396;SDS011;5754;43.726;7.416;2023-09-12T00:05:24;10.25;;;9.43;;
11396;SDS011;5754;43.726;7.416;2023-09-12T00:07:58;10.52;;;9.55;;
11396;SDS011;5754;43.726;7.416;2023-09-12T00:10:32;10.95;;;9.93;;
11396;SDS011;5754;43.726;7.416;2023-09-12T00:13:07;10.35;;;9.32;;
11396;SDS011;5754;43.726;7.416;2023-09-12T00:15:42;10.35;;;9.35;;
11396;SDS011;5754;43.726;7.416;2023-09-12T00:18:16;9.93;;;9.03;;
11396;SDS011;5754;43.726;7.416;2023-09-12T00:20:52;9.95;;;9.00;;
11396;SDS011;5754;43.726;7.416;2023-09-12T00:23:26;9.20;;;8.32;;
11396;SDS011;5754;43.726;7.416;2023-09-12T00:26:01;10.07;;;9.27;;
11396;SDS011;5754;43.726;7.416;2023-09-12T00:28:35;9.98;;;9.27;;
11396;SDS011;5754;43.726;7.416;2023-09-12T00:31:12;9.90;;;9.10;;
11396;SDS011;5754;43.726;7.416;2023-09-12T00:33:49;11.93;;;8.77;;
11396;SDS011;5754;43.726;7.416;2023-09-12T00:36:23;10.50;;;9.63;;
11396;SDS011;5754;43.726;7.416;2023-09-12T00:38:58;9.48;;;8.77;;
11396;SDS011;5754;43.726;7.416;2023-09-12T00:41:32;9.80;;;8.98;;
11396;SDS011;5754;43.726;7.416;2023-09-12T00:44:06;10.52;;;9.55;;
11396;SDS011;5754;43.726;7.416;2023-09-12T00:46:41;9.95;;;8.95;;
11396;SDS011;5754;43.726;7.416;2023-09-12T00:49:16;8.60;;;7.90;;
11396;SDS011;5754;43.726;7.416;2023-09-12T00:51:52;10.20;;;9.23;;
11396;SDS011;5754;43.726;7.416;2023-09-12T00:54:27;10.70;;;9.85;;
11396;SDS011;5754;43.726;7.416;2023-09-12T00:57:02;9.50;;;8.80;;
11396;SDS011;5754;43.726;7.416;2023-09-12T00:59:37;9.32;;;8.55;;
11396;SDS011;5754;43.726;7.416;2023-09-12T01:02:12;9.13;;;8.43;;
11396;SDS011;5754;43.726;7.416;2023-09-12T01:04:48;9.73;;;8.93;;
11396;SDS011;5754;43.726;7.416;2023-09-12T01:07:23;10.15;;;9.25;;
11396;SDS011;5754;43.726;7.416;2023-09-12T01:09:59;9.15;;;8.35;;
11396;SDS011;5754;43.726;7.416;2023-09-12T01:12:34;8.90;;;8.20;;
11396;SDS011;5754;43.726;7.416;2023-09-12T01:15:09;9.90;;;9.20;;
11396;SDS011;5754;43.726;7.416;2023-09-12T01:17:47;9.50;;;8.77;;
11396;SDS011;5754;43.726;7.416;2023-09-12T01:20:28;9.77;;;8.02;;
11396;SDS011;5754;43.726;7.416;2023-09-12T01:23:19;9.15;;;8.43;;
11396;SDS011;5754;43.726;7.416;2023-09-12T01:26:08;9.40;;;8.60;;
11396;SDS011;5754;43.726;7.416;2023-09-12T01:28:48;8.75;;;8.05;;
11396;SDS011;5754;43.726;7.416;2023-09-12T01:31:23;9.70;;;9.00;;
11396;SDS011;5754;43.726;7.416;2023-09-12T01:34:08;8.95;;;8.25;;
11396;SDS011;5754;43.726;7.416;2023-09-12T01:36:43;9.23;;;8.52;;
11396;SDS011;5754;43.726;7.416;2023-09-12T01:39:18;9.38;;;8.68;;
11396;SDS011;5754;43.726;7.416;2023-09-12T01:41:54;9.35;;;8.55;;
11396;SDS011;5754;43.726;7.416;2023-09-12T01:44:28;8.93;;;8.23;;
11396;SDS011;5754;43.726;7.416;2023-09-12T01:47:03;8.50;;;7.78;;
11396;SDS011;5754;43.726;7.416;2023-09-12T01:49:42;9.13;;;8.50;;
11396;SDS011;5754;43.726;7.416;2023-09-12T01:52:18;9.15;;;8.38;;
11396;SDS011;5754;43.726;7.416;2023-09-12T01:54:53;10.57;;;9.63;;
11396;SDS011;5754;43.726;7.416;2023-09-12T01:57:29;10.35;;;9.35;;
11396;SDS011;5754;43.726;7.416;2023-09-12T02:00:05;8.98;;;8.15;;
11396;SDS011;5754;43.726;7.416;2023-09-12T02:02:41;10.60;;;9.30;;
11396;SDS011;5754;43.726;7.416;2023-09-12T02:05:17;9.90;;;9.02;;
11396;SDS011;5754;43.726;7.416;2023-09-12T02:07:53;9.18;;;8.50;;
11396;SDS011;5754;43.726;7.416;2023-09-12T02:10:31;9.63;;;8.73;;
11396;SDS011;5754;43.726;7.416;2023-09-12T02:13:06;9.75;;;9.05;;
11396;SDS011;5754;43.726;7.416;2023-09-12T02:15:41;10.00;;;9.10;;
11396;SDS011;5754;43.726;7.416;2023-09-12T02:18:15;9.57;;;8.82;;
11396;SDS011;5754;43.726;7.416;2023-09-12T02:20:50;10.30;;;9.18;;
11396;SDS011;5754;43.726;7.416;2023-09-12T02:23:25;9.88;;;9.07;;
11396;SDS011;5754;43.726;7.416;2023-09-12T02:26:00;9.90;;;9.10;;
11396;SDS011;5754;43.726;7.416;2023-09-12T02:28:34;9.10;;;8.40;;
11396;SDS011;5754;43.726;7.416;2023-09-12T02:31:09;10.10;;;9.20;;
11396;SDS011;5754;43.726;7.416;2023-09-12T02:33:45;11.40;;;9.65;;
11396;SDS011;5754;43.726;7.416;2023-09-12T02:36:20;9.90;;;9.05;;
11396;SDS011;5754;43.726;7.416;2023-09-12T02:38:54;9.95;;;9.10;;
11396;SDS011;5754;43.726;7.416;2023-09-12T02:41:29;9.48;;;8.77;;
11396;SDS011;5754;43.726;7.416;2023-09-12T02:44:04;8.57;;;7.87;;
11396;SDS011;5754;43.726;7.416;2023-09-12T02:46:39;9.82;;;8.90;;
11396;SDS011;5754;43.726;7.416;2023-09-12T02:49:13;10.57;;;9.52;;
11396;SDS011;5754;43.726;7.416;2023-09-12T02:51:48;9.65;;;8.85;;
11396;SDS011;5754;43.726;7.416;2023-09-12T02:54:22;10.30;;;9.23;;
11396;SDS011;5754;43.726;7.416;2023-09-12T02:56:57;9.80;;;8.90;;
11396;SDS011;5754;43.726;7.416;2023-09-12T02:59:31;10.00;;;9.15;;
11396;SDS011;5754;43.726;7.416;2023-09-12T03:02:07;9.63;;;8.85;;
11396;SDS011;5754;43.726;7.416;2023-09-12T03:04:41;10.60;;;9.50;;
11396;SDS011;5754;43.726;7.416;2023-09-12T03:07:16;10.10;;;9.27;;
11396;SDS011;5754;43.726;7.416;2023-09-12T03:09:51;10.20;;;9.20;;
11396;SDS011;5754;43.726;7.416;2023-09-12T03:12:26;9.23;;;8.48;;
11396;SDS011;5754;43.726;7.416;2023-09-12T03:15:01;10.23;;;9.43;;
11396;SDS011;5754;43.726;7.416;2023-09-12T03:17:37;9.80;;;8.85;;
11396;SDS011;5754;43.726;7.416;2023-09-12T03:20:12;9.15;;;8.43;;
11396;SDS011;5754;43.726;7.416;2023-09-12T03:22:47;10.25;;;9.27;;
11396;SDS011;5754;43.726;7.416;2023-09-12T03:25:21;9.00;;;8.30;;
11396;SDS011;5754;43.726;7.416;2023-09-12T03:27:55;9.75;;;8.48;;
11396;SDS011;5754;43.726;7.416;2023-09-12T03:30:30;9.43;;;8.73;;
11396;SDS011;5754;43.726;7.416;2023-09-12T03:33:05;9.55;;;8.75;;
11396;SDS011;5754;43.726;7.416;2023-09-12T03:35:42;10.30;;;9.43;;
11396;SDS011;5754;43.726;7.416;2023-09-12T03:38:18;9.93;;;8.93;;
11396;SDS011;5754;43.726;7.416;2023-09-12T03:40:52;11.10;;;9.50;;
11396;SDS011;5754;43.726;7.416;2023-09-12T03:43:26;10.18;;;9.23;;
11396;SDS011;5754;43.726;7.416;2023-09-12T03:46:03;10.75;;;9.77;;
11396;SDS011;5754;43.726;7.416;2023-09-12T03:48:37;9.85;;;9.05;;
11396;SDS011;5754;43.726;7.416;2023-09-12T03:51:12;11.07;;;9.98;;
11396;SDS011;5754;43.726;7.416;2023-09-12T03:53:46;10.27;;;9.38;;
11396;SDS011;5754;43.726;7.416;2023-09-12T03:56:23;10.60;;;9.70;;
11396;SDS011;5754;43.726;7.416;2023-09-12T03:58:57;10.50;;;9.63;;
11396;SDS011;5754;43.726;7.416;2023-09-12T04:01:33;10.90;;;9.90;;
11396;SDS011;5754;43.726;7.416;2023-09-12T04:04:07;11.43;;;10.40;;
11396;SDS011;5754;43.726;7.416;2023-09-12T04:06:43;10.65;;;9.38;;
11396;SDS011;5754;43.726;7.416;2023-09-12T04:09:18;10.00;;;9.15;;
11396;SDS011;5754;43.726;7.416;2023-09-12T04:11:53;10.13;;;9.23;;
11396;SDS011;5754;43.726;7.416;2023-09-12T04:14:27;9.48;;;8.60;;
11396;SDS011;5754;43.726;7.416;2023-09-12T04:17:02;9.63;;;8.77;;
11396;SDS011;5754;43.726;7.416;2023-09-12T04:19:37;10.00;;;9.07;;
11396;SDS011;5754;43.726;7.416;2023-09-12T04:22:12;9.65;;;8.70;;
11396;SDS011;5754;43.726;7.416;2023-09-12T04:24:46;10.52;;;8.77;;
11396;SDS011;5754;43.726;7.416;2023-09-12T04:27:21;9.53;;;8.73;;
11396;SDS011;5754;43.726;7.416;2023-09-12T04:29:55;10.98;;;9.85;;
11396;SDS011;5754;43.726;7.416;2023-09-12T04:32:30;10.63;;;9.52;;
11396;SDS011;5754;43.726;7.416;2023-09-12T04:35:04;11.15;;;10.23;;
11396;SDS011;5754;43.726;7.416;2023-09-12T04:37:39;11.10;;;9.32;;
11396;SDS011;5754;43.726;7.416;2023-09-12T04:40:14;11.00;;;10.00;;
11396;SDS011;5754;43.726;7.416;2023-09-12T04:42:49;10.45;;;9.55;;
11396;SDS011;5754;43.726;7.416;2023-09-12T04:45:23;10.40;;;9.40;;
11396;SDS011;5754;43.726;7.416;2023-09-12T04:47:58;11.32;;;10.43;;
11396;SDS011;5754;43.726;7.416;2023-09-12T04:50:32;10.57;;;9.68;;
11396;SDS011;5754;43.726;7.416;2023-09-12T04:53:07;10.23;;;9.43;;
11396;SDS011;5754;43.726;7.416;2023-09-12T04:55:41;11.15;;;10.27;;
11396;SDS011;5754;43.726;7.416;2023-09-12T04:58:16;11.15;;;10.25;;
11396;SDS011;5754;43.726;7.416;2023-09-12T05:00:50;10.50;;;9.50;;
11396;SDS011;5754;43.726;7.416;2023-09-12T05:03:25;11.40;;;8.98;;
11396;SDS011;5754;43.726;7.416;2023-09-12T05:06:00;13.10;;;9.73;;
11396;SDS011;5754;43.726;7.416;2023-09-12T05:08:36;14.43;;;10.63;;
11396;SDS011;5754;43.726;7.416;2023-09-12T05:11:11;12.93;;;10.63;;
11396;SDS011;5754;43.726;7.416;2023-09-12T05:13:45;10.93;;;9.93;;
11396;SDS011;5754;43.726;7.416;2023-09-12T05:16:20;10.85;;;9.75;;
11396;SDS011;5754;43.726;7.416;2023-09-12T05:18:58;9.98;;;9.07;;
11396;SDS011;5754;43.726;7.416;2023-09-12T05:21:37;10.77;;;9.75;;
11396;SDS011;5754;43.726;7.416;2023-09-12T05:24:12;10.27;;;9.38;;
11396;SDS011;5754;43.726;7.416;2023-09-12T05:26:46;10.75;;;9.85;;
11396;SDS011;5754;43.726;7.416;2023-09-12T05:29:23;10.55;;;9.55;;
11396;SDS011;5754;43.726;7.416;2023-09-12T05:31:57;10.35;;;9.43;;
11396;SDS011;5754;43.726;7.416;2023-09-12T05:34:33;9.68;;;8.88;;
11396;SDS011;5754;43.726;7.416;2023-09-12T05:37:07;9.95;;;9.15;;
11396;SDS011;5754;43.726;7.416;2023-09-12T05:39:43;10.48;;;9.38;;
11396;SDS011;5754;43.726;7.416;2023-09-12T05:42:17;11.30;;;10.20;;
11396;SDS011;5754;43.726;7.416;2023-09-12T05:44:54;10.60;;;9.27;;
11396;SDS011;5754;43.726;7.416;2023-09-12T05:47:29;10.32;;;9.52;;
11396;SDS011;5754;43.726;7.416;2023-09-12T05:50:05;10.77;;;9.70;;
11396;SDS011;5754;43.726;7.416;2023-09-12T05:52:40;9.98;;;9.13;;
11396;SDS011;5754;43.726;7.416;2023-09-12T05:55:17;10.55;;;9.68;;
11396;SDS011;5754;43.726;7.416;2023-09-12T06:00:32;11.45;;;10.35;;
11396;SDS011;5754;43.726;7.416;2023-09-12T06:03:08;9.82;;;9.02;;
11396;SDS011;5754;43.726;7.416;2023-09-12T06:05:42;10.40;;;9.40;;
11396;SDS011;5754;43.726;7.416;2023-09-12T06:08:18;9.75;;;9.02;;
11396;SDS011;5754;43.726;7.416;2023-09-12T06:10:52;10.98;;;10.07;;
11396;SDS011;5754;43.726;7.416;2023-09-12T06:13:28;9.50;;;8.60;;
11396;SDS011;5754;43.726;7.416;2023-09-12T06:16:03;9.77;;;8.93;;
11396;SDS011;5754;43.726;7.416;2023-09-12T06:18:39;24.98;;;22.52;;
11396;SDS011;5754;43.726;7.416;2023-09-12T06:21:13;13.20;;;12.10;;
11396;SDS011;5754;43.726;7.416;2023-09-12T06:23:48;10.60;;;9.70;;
11396;SDS011;5754;43.726;7.416;2023-09-12T06:26:22;8.93;;;8.23;;
11396;SDS011;5754;43.726;7.416;2023-09-12T06:28:57;9.68;;;8.63;;
11396;SDS011;5754;43.726;7.416;2023-09-12T06:31:31;10.52;;;9.73;;
11396;SDS011;5754;43.726;7.416;2023-09-12T06:34:06;8.88;;;8.20;;
11396;SDS011;5754;43.726;7.416;2023-09-12T06:36:40;7.78;;;7.20;;
11396;SDS011;5754;43.726;7.416;2023-09-12T06:39:19;7.72;;;7.10;;
11396;SDS011;5754;43.726;7.416;2023-09-12T06:41:53;8.32;;;7.70;;
11396;SDS011;5754;43.726;7.416;2023-09-12T06:44:29;8.30;;;7.45;;
11396;SDS011;5754;43.726;7.416;2023-09-12T06:47:05;8.70;;;7.90;;
11396;SDS011;5754;43.726;7.416;2023-09-12T06:49:40;9.57;;;7.40;;
11396;SDS011;5754;43.726;7.416;2023-09-12T06:52:14;8.90;;;8.07;;
11396;SDS011;5754;43.726;7.416;2023-09-12T06:54:48;7.95;;;7.15;;
11396;SDS011;5754;43.726;7.416;2023-09-12T06:57:23;8.30;;;7.60;;
11396;SDS011;5754;43.726;7.416;2023-09-12T06:59:57;7.80;;;7.20;;
11396;SDS011;5754;43.726;7.416;2023-09-12T07:02:32;8.40;;;7.60;;
11396;SDS011;5754;43.726;7.416;2023-09-12T07:05:07;8.95;;;8.20;;
11396;SDS011;5754;43.726;7.416;2023-09-12T07:07:42;8.63;;;7.85;;
11396;SDS011;5754;43.726;7.416;2023-09-12T07:10:16;8.43;;;7.53;;
11396;SDS011;5754;43.726;7.416;2023-09-12T07:12:56;8.63;;;7.75;;
11396;SDS011;5754;43.726;7.416;2023-09-12T07:15:31;8.40;;;7.60;;
11396;SDS011;5754;43.726;7.416;2023-09-12T07:18:06;9.73;;;7.47;;
11396;SDS011;5754;43.726;7.416;2023-09-12T07:20:40;8.50;;;7.50;;
11396;SDS011;5754;43.726;7.416;2023-09-12T07:23:15;7.78;;;7.03;;
11396;SDS011;5754;43.726;7.416;2023-09-12T07:25:51;7.90;;;7.35;;
11396;SDS011;5754;43.726;7.416;2023-09-12T07:28:29;7.97;;;7.18;;
11396;SDS011;5754;43.726;7.416;2023-09-12T07:31:07;7.78;;;7.18;;
11396;SDS011;5754;43.726;7.416;2023-09-12T07:33:43;7.55;;;6.80;;
11396;SDS011;5754;43.726;7.416;2023-09-12T07:36:18;6.93;;;6.43;;
11396;SDS011;5754;43.726;7.416;2023-09-12T07:38:53;7.80;;;7.10;;
11396;SDS011;5754;43.726;7.416;2023-09-12T07:41:28;7.85;;;7.05;;
11396;SDS011;5754;43.726;7.416;2023-09-12T07:44:02;7.93;;;7.25;;
11396;SDS011;5754;43.726;7.416;2023-09-12T07:46:38;8.10;;;7.43;;
11396;SDS011;5754;43.726;7.416;2023-09-12T07:49:12;9.68;;;7.70;;
11396;SDS011;5754;43.726;7.416;2023-09-12T07:51:47;8.00;;;7.32;;
11396;SDS011;5754;43.726;7.416;2023-09-12T07:54:21;8.25;;;7.37;;
11396;SDS011;5754;43.726;7.416;2023-09-12T07:56:56;8.50;;;7.70;;
11396;SDS011;5754;43.726;7.416;2023-09-12T07:59:30;8.57;;;7.87;;
11396;SDS011;5754;43.726;7.416;2023-09-12T08:02:05;8.38;;;7.57;;
11396;SDS011;5754;43.726;7.416;2023-09-12T08:04:40;8.20;;;7.60;;
11396;SDS011;5754;43.726;7.416;2023-09-12T08:07:15;8.57;;;7.87;;
11396;SDS011;5754;43.726;7.416;2023-09-12T08:09:50;8.43;;;7.82;;
11396;SDS011;5754;43.726;7.416;2023-09-12T08:12:28;9.48;;;8.60;;
11396;SDS011;5754;43.726;7.416;2023-09-12T08:15:03;9.15;;;8.32;;
11396;SDS011;5754;43.726;7.416;2023-09-12T08:17:38;9.52;;;8.82;;
11396;SDS011;5754;43.726;7.416;2023-09-12T08:20:12;9.65;;;8.77;;
11396;SDS011;5754;43.726;7.416;2023-09-12T08:22:47;10.82;;;9.75;;
11396;SDS011;5754;43.726;7.416;2023-09-12T08:25:22;10.02;;;9.15;;
11396;SDS011;5754;43.726;7.416;2023-09-12T08:27:58;9.88;;;8.98;;
11396;SDS011;5754;43.726;7.416;2023-09-12T08:30:33;9.80;;;8.77;;
11396;SDS011;5754;43.726;7.416;2023-09-12T08:33:08;9.32;;;8.63;;
11396;SDS011;5754;43.726;7.416;2023-09-12T08:35:43;10.00;;;9.20;;
11396;SDS011;5754;43.726;7.416;2023-09-12T08:38:18;10.02;;;9.13;;
11396;SDS011;5754;43.726;7.416;2023-09-12T08:40:53;9.18;;;8.38;;
11396;SDS011;5754;43.726;7.416;2023-09-12T08:43:27;9.18;;;8.25;;
11396;SDS011;5754;43.726;7.416;2023-09-12T08:46:02;9.73;;;8.95;;
11396;SDS011;5754;43.726;7.416;2023-09-12T08:48:37;9.40;;;8.60;;
11396;SDS011;5754;43.726;7.416;2023-09-12T08:51:14;9.02;;;8.23;;
11396;SDS011;5754;43.726;7.416;2023-09-12T08:53:52;9.55;;;8.57;;
11396;SDS011;5754;43.726;7.416;2023-09-12T08:56:27;8.80;;;8.07;;
11396;SDS011;5754;43.726;7.416;2023-09-12T08:59:02;9.48;;;8.77;;
11396;SDS011;5754;43.726;7.416;2023-09-12T09:01:38;8.63;;;7.87;;
11396;SDS011;5754;43.726;7.416;2023-09-12T09:04:13;8.77;;;8.07;;
11396;SDS011;5754;43.726;7.416;2023-09-12T09:06:48;8.95;;;8.13;;
11396;SDS011;5754;43.726;7.416;2023-09-12T09:09:23;9.68;;;8.82;;
11396;SDS011;5754;43.726;7.416;2023-09-12T09:11:59;9.07;;;8.35;;
11396;SDS011;5754;43.726;7.416;2023-09-12T09:14:33;9.18;;;8.38;;
11396;SDS011;5754;43.726;7.416;2023-09-12T09:17:07;9.18;;;8.27;;
11396;SDS011;5754;43.726;7.416;2023-09-12T09:19:48;8.15;;;7.50;;
11396;SDS011;5754;43.726;7.416;2023-09-12T09:22:22;8.57;;;7.93;;
11396;SDS011;5754;43.726;7.416;2023-09-12T09:25:10;9.32;;;8.40;;
11396;SDS011;5754;43.726;7.416;2023-09-12T09:27:45;8.48;;;7.68;;
11396;SDS011;5754;43.726;7.416;2023-09-12T09:30:39;8.73;;;8.02;;
11396;SDS011;5754;43.726;7.416;2023-09-12T09:33:16;9.20;;;8.02;;
11396;SDS011;5754;43.726;7.416;2023-09-12T09:35:50;9.35;;;8.60;;
11396;SDS011;5754;43.726;7.416;2023-09-12T09:38:36;9.07;;;8.35;;
11396;SDS011;5754;43.726;7.416;2023-09-12T09:41:10;10.02;;;9.23;;
11396;SDS011;5754;43.726;7.416;2023-09-12T09:43:45;9.38;;;8.68;;
11396;SDS011;5754;43.726;7.416;2023-09-12T09:46:19;9.50;;;8.55;;
11396;SDS011;5754;43.726;7.416;2023-09-12T09:48:55;9.98;;;9.07;;
11396;SDS011;5754;43.726;7.416;2023-09-12T09:51:29;9.80;;;8.90;;
11396;SDS011;5754;43.726;7.416;2023-09-12T09:54:07;8.80;;;7.97;;
11396;SDS011;5754;43.726;7.416;2023-09-12T09:56:48;8.95;;;8.25;;
11396;SDS011;5754;43.726;7.416;2023-09-12T09:59:27;9.50;;;8.77;;
11396;SDS011;5754;43.726;7.416;2023-09-12T10:02:01;9.60;;;8.60;;
11396;SDS011;5754;43.726;7.416;2023-09-12T10:04:38;9.88;;;9.07;;
11396;SDS011;5754;43.726;7.416;2023-09-12T10:07:15;8.93;;;8.23;;
11396;SDS011;5754;43.726;7.416;2023-09-12T10:09:50;9.70;;;8.80;;
11396;SDS011;5754;43.726;7.416;2023-09-12T10:12:25;10.02;;;9.13;;
11396;SDS011;5754;43.726;7.416;2023-09-12T10:15:02;10.55;;;9.55;;
11396;SDS011;5754;43.726;7.416;2023-09-12T10:17:39;9.25;;;8.40;;
11396;SDS011;5754;43.726;7.416;2023-09-12T10:20:15;8.88;;;8.05;;
11396;SDS011;5754;43.726;7.416;2023-09-12T10:23:03;8.93;;;8.13;;
11396;SDS011;5754;43.726;7.416;2023-09-12T10:25:42;8.70;;;7.87;;
11396;SDS011;5754;43.726;7.416;2023-09-12T10:28:17;9.25;;;8.35;;
11396;SDS011;5754;43.726;7.416;2023-09-12T10:30:52;9.75;;;8.73;;
11396;SDS011;5754;43.726;7.416;2023-09-12T10:33:28;10.93;;;8.30;;
11396;SDS011;5754;43.726;7.416;2023-09-12T10:36:05;9.13;;;8.23;;
11396;SDS011;5754;43.726;7.416;2023-09-12T10:38:44;9.18;;;8.43;;
11396;SDS011;5754;43.726;7.416;2023-09-12T10:41:19;10.13;;;9.23;;
11396;SDS011;5754;43.726;7.416;2023-09-12T10:43:55;9.80;;;8.80;;
11396;SDS011;5754;43.726;7.416;2023-09-12T10:46:30;10.18;;;9.10;;
11396;SDS011;5754;43.726;7.416;2023-09-12T10:49:06;9.80;;;8.90;;
11396;SDS011;5754;43.726;7.416;2023-09-12T10:51:43;9.82;;;8.90;;
11396;SDS011;5754;43.726;7.416;2023-09-12T10:54:25;9.10;;;8.25;;
11396;SDS011;5754;43.726;7.416;2023-09-12T10:57:07;8.90;;;7.93;;
11396;SDS011;5754;43.726;7.416;2023-09-12T11:05:52;8.13;;;7.35;;
11396;SDS011;5754;43.726;7.416;2023-09-12T11:08:27;8.48;;;7.72;;
11396;SDS011;5754;43.726;7.416;2023-09-12T11:11:21;9.13;;;8.23;;
11396;SDS011;5754;43.726;7.416;2023-09-12T11:14:14;8.80;;;8.02;;
11396;SDS011;5754;43.726;7.416;2023-09-12T11:26:13;9.10;;;8.23;;
11396;SDS011;5754;43.726;7.416;2023-09-12T11:28:48;7.60;;;7.00;;
11396;SDS011;5754;43.726;7.416;2023-09-12T11:31:25;8.52;;;7.65;;
11396;SDS011;5754;43.726;7.416;2023-09-12T11:34:00;9.02;;;7.82;;
11396;SDS011;5754;43.726;7.416;2023-09-12T11:36:39;9.38;;;8.00;;
11396;SDS011;5754;43.726;7.416;2023-09-12T11:39:24;8.80;;;7.93;;
11396;SDS011;5754;43.726;7.416;2023-09-12T11:42:00;8.15;;;7.35;;
11396;SDS011;5754;43.726;7.416;2023-09-12T11:44:34;9.38;;;8.43;;
11396;SDS011;5754;43.726;7.416;2023-09-12T11:47:08;11.90;;;8.45;;
11396;SDS011;5754;43.726;7.416;2023-09-12T11:49:44;9.00;;;8.23;;
11396;SDS011;5754;43.726;7.416;2023-09-12T11:52:21;9.15;;;7.93;;
11396;SDS011;5754;43.726;7.416;2023-09-12T11:54:56;9.07;;;8.30;;
11396;SDS011;5754;43.726;7.416;2023-09-12T11:57:30;9.55;;;8.55;;
11396;SDS011;5754;43.726;7.416;2023-09-12T12:00:06;10.48;;;8.70;;
11396;SDS011;5754;43.726;7.416;2023-09-12T12:02:46;8.52;;;7.62;;
11396;SDS011;5754;43.726;7.416;2023-09-12T12:05:21;7.97;;;7.28;;
11396;SDS011;5754;43.726;7.416;2023-09-12T12:07:57;8.88;;;7.97;;
11396;SDS011;5754;43.726;7.416;2023-09-12T12:10:39;9.60;;;8.30;;
11396;SDS011;5754;43.726;7.416;2023-09-12T12:13:17;8.73;;;7.72;;
11396;SDS011;5754;43.726;7.416;2023-09-12T12:15:52;8.43;;;7.55;;
11396;SDS011;5754;43.726;7.416;2023-09-12T12:18:26;8.52;;;7.82;;
11396;SDS011;5754;43.726;7.416;2023-09-12T12:21:01;9.85;;;8.85;;
11396;SDS011;5754;43.726;7.416;2023-09-12T12:23:36;10.32;;;9.45;;
11396;SDS011;5754;43.726;7.416;2023-09-12T12:26:10;10.73;;;9.77;;
11396;SDS011;5754;43.726;7.416;2023-09-12T12:28:45;10.07;;;9.10;;
11396;SDS011;5754;43.726;7.416;2023-09-12T12:31:19;9.93;;;9.13;;
11396;SDS011;5754;43.726;7.416;2023-09-12T12:33:57;11.20;;;10.10;;
11396;SDS011;5754;43.726;7.416;2023-09-12T12:36:33;9.75;;;8.93;;
11396;SDS011;5754;43.726;7.416;2023-09-12T12:39:20;10.43;;;9.40;;
11396;SDS011;5754;43.726;7.416;2023-09-12T12:41:55;9.73;;;8.93;;
11396;SDS011;5754;43.726;7.416;2023-09-12T12:44:33;10.18;;;9.27;;
11396;SDS011;5754;43.726;7.416;2023-09-12T12:47:14;9.82;;;8.82;;
11396;SDS011;5754;43.726;7.416;2023-09-12T12:49:53;9.43;;;8.63;;
11396;SDS011;5754;43.726;7.416;2023-09-12T12:52:27;10.50;;;8.88;;
11396;SDS011;5754;43.726;7.416;2023-09-12T12:55:20;9.50;;;8.77;;
11396;SDS011;5754;43.726;7.416;2023-09-12T12:57:55;9.25;;;8.40;;
11396;SDS011;5754;43.726;7.416;2023-09-12T13:00:30;10.50;;;8.77;;
11396;SDS011;5754;43.726;7.416;2023-09-12T13:03:04;9.02;;;8.18;;
11396;SDS011;5754;43.726;7.416;2023-09-12T13:05:39;14.25;;;7.75;;
11396;SDS011;5754;43.726;7.416;2023-09-12T13:08:15;8.63;;;7.93;;
11396;SDS011;5754;43.726;7.416;2023-09-12T13:10:50;9.77;;;7.90;;
11396;SDS011;5754;43.726;7.416;2023-09-12T13:13:27;9.30;;;8.32;;
11396;SDS011;5754;43.726;7.416;2023-09-12T13:16:01;9.45;;;7.90;;
11396;SDS011;5754;43.726;7.416;2023-09-12T13:18:38;8.30;;;7.60;;
11396;SDS011;5754;43.726;7.416;2023-09-12T13:21:12;9.65;;;7.68;;
11396;SDS011;5754;43.726;7.416;2023-09-12T13:23:49;8.10;;;7.40;;
11396;SDS011;5754;43.726;7.416;2023-09-12T13:26:24;8.40;;;7.62;;
11396;SDS011;5754;43.726;7.416;2023-09-12T13:28:58;8.38;;;7.60;;
11396;SDS011;5754;43.726;7.416;2023-09-12T13:31:33;8.00;;;7.40;;
11396;SDS011;5754;43.726;7.416;2023-09-12T13:34:08;7.87;;;7.18;;
11396;SDS011;5754;43.726;7.416;2023-09-12T13:36:44;8.75;;;7.95;;
11396;SDS011;5754;43.726;7.416;2023-09-12T13:39:19;7.68;;;7.03;;
11396;SDS011;5754;43.726;7.416;2023-09-12T13:41:53;7.95;;;6.50;;
11396;SDS011;5754;43.726;7.416;2023-09-12T13:44:31;8.15;;;7.32;;
11396;SDS011;5754;43.726;7.416;2023-09-12T13:47:05;7.20;;;6.50;;
11396;SDS011;5754;43.726;7.416;2023-09-12T13:49:40;6.50;;;6.00;;
11396;SDS011;5754;43.726;7.416;2023-09-12T13:52:15;7.12;;;6.50;;
11396;SDS011;5754;43.726;7.416;2023-09-12T13:54:49;7.05;;;6.45;;
11396;SDS011;5754;43.726;7.416;2023-09-12T13:57:24;7.43;;;6.82;;
11396;SDS011;5754;43.726;7.416;2023-09-12T13:59:58;7.53;;;6.82;;
11396;SDS011;5754;43.726;7.416;2023-09-12T14:02:33;7.25;;;6.62;;
11396;SDS011;5754;43.726;7.416;2023-09-12T14:05:07;8.27;;;7.20;;
11396;SDS011;5754;43.726;7.416;2023-09-12T14:07:45;7.80;;;7.10;;
11396;SDS011;5754;43.726;7.416;2023-09-12T14:10:20;6.95;;;6.45;;
11396;SDS011;5754;43.726;7.416;2023-09-12T14:12:59;7.55;;;6.87;;
11396;SDS011;5754;43.726;7.416;2023-09-12T14:15:40;6.87;;;6.25;;
11396;SDS011;5754;43.726;7.416;2023-09-12T14:18:16;8.27;;;7.50;;
11396;SDS011;5754;43.726;7.416;2023-09-12T14:20:51;7.75;;;7.05;;
11396;SDS011;5754;43.726;7.416;2023-09-12T14:23:26;7.32;;;6.62;;
11396;SDS011;5754;43.726;7.416;2023-09-12T14:26:01;6.47;;;5.97;;
11396;SDS011;5754;43.726;7.416;2023-09-12T14:28:35;7.00;;;6.40;;
11396;SDS011;5754;43.726;7.416;2023-09-12T14:31:10;7.12;;;6.53;;
11396;SDS011;5754;43.726;7.416;2023-09-12T14:33:48;7.05;;;6.35;;
11396;SDS011;5754;43.726;7.416;2023-09-12T14:36:25;7.10;;;6.40;;
11396;SDS011;5754;43.726;7.416;2023-09-12T14:39:02;6.62;;;6.03;;
11396;SDS011;5754;43.726;7.416;2023-09-12T14:41:37;6.32;;;5.78;;
11396;SDS011;5754;43.726;7.416;2023-09-12T14:44:11;7.32;;;6.30;;
11396;SDS011;5754;43.726;7.416;2023-09-12T14:46:47;6.75;;;6.25;;
11396;SDS011;5754;43.726;7.416;2023-09-12T14:49:23;6.50;;;6.03;;
11396;SDS011;5754;43.726;7.416;2023-09-12T14:51:59;6.20;;;5.75;;
11396;SDS011;5754;43.726;7.416;2023-09-12T14:54:34;6.62;;;5.93;;
11396;SDS011;5754;43.726;7.416;2023-09-12T14:57:09;7.50;;;6.72;;
11396;SDS011;5754;43.726;7.416;2023-09-12T14:59:44;6.40;;;5.90;;
11396;SDS011;5754;43.726;7.416;2023-09-12T15:02:18;6.20;;;5.60;;
11396;SDS011;5754;43.726;7.416;2023-09-12T15:04:52;6.70;;;5.78;;
11396;SDS011;5754;43.726;7.416;2023-09-12T15:07:29;6.15;;;5.75;;
11396;SDS011;5754;43.726;7.416;2023-09-12T15:10:04;6.68;;;6.07;;
11396;SDS011;5754;43.726;7.416;2023-09-12T15:12:39;6.15;;;5.70;;
11396;SDS011;5754;43.726;7.416;2023-09-12T15:15:13;5.10;;;4.80;;
11396;SDS011;5754;43.726;7.416;2023-09-12T15:17:48;6.68;;;6.07;;
11396;SDS011;5754;43.726;7.416;2023-09-12T15:20:22;6.55;;;5.85;;
11396;SDS011;5754;43.726;7.416;2023-09-12T15:22:57;6.43;;;5.85;;
11396;SDS011;5754;43.726;7.416;2023-09-12T15:25:31;6.53;;;5.93;;
11396;SDS011;5754;43.726;7.416;2023-09-12T15:28:06;6.20;;;5.70;;
11396;SDS011;5754;43.726;7.416;2023-09-12T15:30:42;6.55;;;6.05;;
11396;SDS011;5754;43.726;7.416;2023-09-12T15:33:17;6.37;;;5.80;;
11396;SDS011;5754;43.726;7.416;2023-09-12T15:35:52;6.45;;;5.85;;
11396;SDS011;5754;43.726;7.416;2023-09-12T15:38:27;6.05;;;5.62;;
11396;SDS011;5754;43.726;7.416;2023-09-12T15:41:01;6.75;;;6.18;;
11396;SDS011;5754;43.726;7.416;2023-09-12T15:43:39;6.82;;;6.32;;
11396;SDS011;5754;43.726;7.416;2023-09-12T15:46:14;6.18;;;5.78;;
11396;SDS011;5754;43.726;7.416;2023-09-12T15:48:59;6.87;;;6.30;;
11396;SDS011;5754;43.726;7.416;2023-09-12T15:51:34;6.32;;;5.70;;
11396;SDS011;5754;43.726;7.416;2023-09-12T15:54:08;5.97;;;5.57;;
11396;SDS011;5754;43.726;7.416;2023-09-12T15:56:43;6.30;;;5.80;;
11396;SDS011;5754;43.726;7.416;2023-09-12T15:59:17;6.35;;;5.75;;
11396;SDS011;5754;43.726;7.416;2023-09-12T16:01:52;6.80;;;6.28;;
11396;SDS011;5754;43.726;7.416;2023-09-12T16:04:30;7.32;;;6.53;;
11396;SDS011;5754;43.726;7.416;2023-09-12T16:07:04;6.85;;;6.32;;